Antioch, Illinois
Current Conditions -  °F | °C
As of 5:53 PM on Thursday 27 Nov 2014 (Local Time) from KENW Reporting Station
Light Snow Light Snow  
Wind Chill: 10°   Ceiling: 3100
Heat Index: 18°   Visibility: 9mi
Dew Point: 10°   Wind: 6mph
Humidity: 71%   Direction: 310°NW
Pressure: 30.4"   Gusts: NA
Location:  42.48°N, 88.1°W
Report Text: KENW 272353Z 31005KT 9SM -SN FEW023 OVC031 M08/M12 A3040 RMK AO2 SLP307 P0000 60000 T10781122 11056 21078 51015 $
Loading
Personal Weather Stations






























Interactive Weather Map New forecast layout! Learn more

10-Day Weather Forecast

Advertisements
Track Severe Weather on mobile